sensor_id;sensor_type;location;lat;lon;timestamp;P1;durP1;ratioP1;P2;durP2;ratioP2
73776;SDS011;62088;50.240;2.696;2023-08-20T00:01:26;6.75;;;1.80;;
73776;SDS011;62088;50.240;2.696;2023-08-20T00:03:55;6.53;;;1.40;;
73776;SDS011;62088;50.240;2.696;2023-08-20T00:06:23;5.90;;;1.40;;
73776;SDS011;62088;50.240;2.696;2023-08-20T00:08:50;7.82;;;1.90;;
73776;SDS011;62088;50.240;2.696;2023-08-20T00:11:18;7.75;;;1.65;;
73776;SDS011;62088;50.240;2.696;2023-08-20T00:13:45;6.47;;;1.55;;
73776;SDS011;62088;50.240;2.696;2023-08-20T00:16:12;5.35;;;1.40;;
73776;SDS011;62088;50.240;2.696;2023-08-20T00:18:40;8.18;;;1.65;;
73776;SDS011;62088;50.240;2.696;2023-08-20T00:21:07;4.13;;;1.25;;
73776;SDS011;62088;50.240;2.696;2023-08-20T00:23:35;6.65;;;1.70;;
73776;SDS011;62088;50.240;2.696;2023-08-20T00:26:03;7.65;;;1.73;;
73776;SDS011;62088;50.240;2.696;2023-08-20T00:28:31;5.65;;;1.65;;
73776;SDS011;62088;50.240;2.696;2023-08-20T00:31:00;8.40;;;1.75;;
73776;SDS011;62088;50.240;2.696;2023-08-20T00:33:28;8.60;;;1.70;;
73776;SDS011;62088;50.240;2.696;2023-08-20T00:35:55;4.60;;;1.70;;
73776;SDS011;62088;50.240;2.696;2023-08-20T00:38:22;5.85;;;1.67;;
73776;SDS011;62088;50.240;2.696;2023-08-20T00:40:49;4.47;;;1.55;;
73776;SDS011;62088;50.240;2.696;2023-08-20T00:43:17;5.50;;;1.60;;
73776;SDS011;62088;50.240;2.696;2023-08-20T00:45:44;6.85;;;1.52;;
73776;SDS011;62088;50.240;2.696;2023-08-20T00:48:11;4.80;;;1.75;;
73776;SDS011;62088;50.240;2.696;2023-08-20T00:50:39;7.05;;;1.65;;
73776;SDS011;62088;50.240;2.696;2023-08-20T00:53:08;5.63;;;1.42;;
73776;SDS011;62088;50.240;2.696;2023-08-20T00:55:36;6.43;;;2.05;;
73776;SDS011;62088;50.240;2.696;2023-08-20T00:58:04;6.88;;;1.60;;
73776;SDS011;62088;50.240;2.696;2023-08-20T01:00:32;5.97;;;1.80;;
73776;SDS011;62088;50.240;2.696;2023-08-20T01:02:59;6.18;;;1.60;;
73776;SDS011;62088;50.240;2.696;2023-08-20T01:05:26;6.43;;;1.58;;
73776;SDS011;62088;50.240;2.696;2023-08-20T01:13:32;9.20;;;2.20;;
73776;SDS011;62088;50.240;2.696;2023-08-20T01:15:59;6.00;;;2.05;;
73776;SDS011;62088;50.240;2.696;2023-08-20T01:18:26;6.00;;;2.20;;
73776;SDS011;62088;50.240;2.696;2023-08-20T01:21:37;6.03;;;2.25;;
73776;SDS011;62088;50.240;2.696;2023-08-20T01:24:15;6.30;;;1.70;;
73776;SDS011;62088;50.240;2.696;2023-08-20T01:27:05;6.03;;;2.05;;
73776;SDS011;62088;50.240;2.696;2023-08-20T01:29:46;5.53;;;2.00;;
73776;SDS011;62088;50.240;2.696;2023-08-20T01:32:13;6.55;;;2.22;;
73776;SDS011;62088;50.240;2.696;2023-08-20T01:34:41;7.65;;;2.30;;
73776;SDS011;62088;50.240;2.696;2023-08-20T01:37:09;8.05;;;2.55;;
73776;SDS011;62088;50.240;2.696;2023-08-20T01:39:36;6.82;;;2.55;;
73776;SDS011;62088;50.240;2.696;2023-08-20T01:42:04;7.28;;;2.20;;
73776;SDS011;62088;50.240;2.696;2023-08-20T01:44:31;9.70;;;2.58;;
73776;SDS011;62088;50.240;2.696;2023-08-20T01:46:59;7.63;;;2.20;;
73776;SDS011;62088;50.240;2.696;2023-08-20T01:49:44;8.45;;;2.72;;
73776;SDS011;62088;50.240;2.696;2023-08-20T01:52:12;8.48;;;2.08;;
73776;SDS011;62088;50.240;2.696;2023-08-20T01:54:39;9.38;;;2.00;;
73776;SDS011;62088;50.240;2.696;2023-08-20T01:57:24;6.90;;;1.80;;
73776;SDS011;62088;50.240;2.696;2023-08-20T01:59:51;5.75;;;1.55;;
73776;SDS011;62088;50.240;2.696;2023-08-20T02:02:18;8.13;;;1.85;;
73776;SDS011;62088;50.240;2.696;2023-08-20T02:04:45;7.45;;;1.90;;
73776;SDS011;62088;50.240;2.696;2023-08-20T02:07:14;4.75;;;1.48;;
73776;SDS011;62088;50.240;2.696;2023-08-20T02:09:41;7.07;;;1.67;;
73776;SDS011;62088;50.240;2.696;2023-08-20T02:12:08;9.50;;;1.77;;
73776;SDS011;62088;50.240;2.696;2023-08-20T02:14:35;6.40;;;1.70;;
73776;SDS011;62088;50.240;2.696;2023-08-20T02:17:02;6.85;;;1.58;;
73776;SDS011;62088;50.240;2.696;2023-08-20T02:19:30;7.97;;;1.80;;
73776;SDS011;62088;50.240;2.696;2023-08-20T02:21:57;6.68;;;1.60;;
73776;SDS011;62088;50.240;2.696;2023-08-20T02:24:25;3.47;;;1.50;;
73776;SDS011;62088;50.240;2.696;2023-08-20T02:26:52;5.72;;;1.52;;
73776;SDS011;62088;50.240;2.696;2023-08-20T02:29:19;7.00;;;1.40;;
73776;SDS011;62088;50.240;2.696;2023-08-20T02:31:46;4.82;;;1.65;;
73776;SDS011;62088;50.240;2.696;2023-08-20T02:34:15;7.35;;;1.60;;
73776;SDS011;62088;50.240;2.696;2023-08-20T02:36:42;6.05;;;1.38;;
73776;SDS011;62088;50.240;2.696;2023-08-20T02:39:10;7.07;;;1.38;;
73776;SDS011;62088;50.240;2.696;2023-08-20T02:41:37;6.00;;;1.60;;
73776;SDS011;62088;50.240;2.696;2023-08-20T02:44:04;4.53;;;1.40;;
73776;SDS011;62088;50.240;2.696;2023-08-20T02:46:31;3.80;;;1.30;;
73776;SDS011;62088;50.240;2.696;2023-08-20T02:48:58;8.05;;;1.77;;
73776;SDS011;62088;50.240;2.696;2023-08-20T02:51:26;8.02;;;2.22;;
73776;SDS011;62088;50.240;2.696;2023-08-20T02:53:53;6.78;;;1.60;;
73776;SDS011;62088;50.240;2.696;2023-08-20T02:56:21;4.97;;;1.63;;
73776;SDS011;62088;50.240;2.696;2023-08-20T02:58:48;6.57;;;2.25;;
73776;SDS011;62088;50.240;2.696;2023-08-20T03:01:21;6.53;;;2.22;;
73776;SDS011;62088;50.240;2.696;2023-08-20T03:03:51;10.60;;;3.10;;
73776;SDS011;62088;50.240;2.696;2023-08-20T03:06:18;7.07;;;4.18;;
73776;SDS011;62088;50.240;2.696;2023-08-20T03:08:45;11.90;;;3.67;;
73776;SDS011;62088;50.240;2.696;2023-08-20T03:11:12;10.85;;;4.50;;
73776;SDS011;62088;50.240;2.696;2023-08-20T03:13:39;12.82;;;5.20;;
73776;SDS011;62088;50.240;2.696;2023-08-20T03:16:06;12.38;;;6.57;;
73776;SDS011;62088;50.240;2.696;2023-08-20T03:18:34;13.73;;;6.47;;
73776;SDS011;62088;50.240;2.696;2023-08-20T03:21:01;12.45;;;6.45;;
73776;SDS011;62088;50.240;2.696;2023-08-20T03:23:29;12.23;;;6.60;;
73776;SDS011;62088;50.240;2.696;2023-08-20T03:25:59;11.25;;;5.93;;
73776;SDS011;62088;50.240;2.696;2023-08-20T03:28:26;10.43;;;5.35;;
73776;SDS011;62088;50.240;2.696;2023-08-20T03:30:53;9.82;;;4.13;;
73776;SDS011;62088;50.240;2.696;2023-08-20T03:33:25;11.68;;;3.88;;
73776;SDS011;62088;50.240;2.696;2023-08-20T03:35:52;12.88;;;4.03;;
73776;SDS011;62088;50.240;2.696;2023-08-20T03:38:22;8.25;;;3.53;;
73776;SDS011;62088;50.240;2.696;2023-08-20T03:40:49;8.30;;;2.70;;
73776;SDS011;62088;50.240;2.696;2023-08-20T03:43:16;9.43;;;2.78;;
73776;SDS011;62088;50.240;2.696;2023-08-20T03:45:43;9.15;;;2.83;;
73776;SDS011;62088;50.240;2.696;2023-08-20T03:48:10;7.82;;;2.28;;
73776;SDS011;62088;50.240;2.696;2023-08-20T03:50:38;5.90;;;1.90;;
73776;SDS011;62088;50.240;2.696;2023-08-20T03:53:05;6.10;;;1.75;;
73776;SDS011;62088;50.240;2.696;2023-08-20T03:55:32;5.47;;;1.98;;
73776;SDS011;62088;50.240;2.696;2023-08-20T03:57:59;6.63;;;1.83;;
73776;SDS011;62088;50.240;2.696;2023-08-20T04:00:26;7.57;;;1.80;;
73776;SDS011;62088;50.240;2.696;2023-08-20T04:02:53;8.45;;;2.00;;
73776;SDS011;62088;50.240;2.696;2023-08-20T04:05:20;4.35;;;1.65;;
73776;SDS011;62088;50.240;2.696;2023-08-20T04:07:48;7.35;;;2.00;;
73776;SDS011;62088;50.240;2.696;2023-08-20T04:10:19;6.13;;;1.88;;
73776;SDS011;62088;50.240;2.696;2023-08-20T04:12:46;9.07;;;1.80;;
73776;SDS011;62088;50.240;2.696;2023-08-20T04:15:13;8.38;;;1.80;;
73776;SDS011;62088;50.240;2.696;2023-08-20T04:17:41;6.65;;;1.70;;
73776;SDS011;62088;50.240;2.696;2023-08-20T04:20:09;4.70;;;1.60;;
73776;SDS011;62088;50.240;2.696;2023-08-20T04:22:37;7.35;;;1.77;;
73776;SDS011;62088;50.240;2.696;2023-08-20T04:25:04;10.82;;;2.50;;
73776;SDS011;62088;50.240;2.696;2023-08-20T04:27:32;5.38;;;1.70;;
73776;SDS011;62088;50.240;2.696;2023-08-20T04:30:01;6.45;;;1.88;;
73776;SDS011;62088;50.240;2.696;2023-08-20T04:32:28;5.65;;;2.05;;
73776;SDS011;62088;50.240;2.696;2023-08-20T04:34:55;4.90;;;1.65;;
73776;SDS011;62088;50.240;2.696;2023-08-20T04:37:22;4.68;;;1.63;;
73776;SDS011;62088;50.240;2.696;2023-08-20T04:39:50;5.13;;;1.85;;
73776;SDS011;62088;50.240;2.696;2023-08-20T04:42:17;7.05;;;1.95;;
73776;SDS011;62088;50.240;2.696;2023-08-20T04:44:44;6.82;;;2.05;;
73776;SDS011;62088;50.240;2.696;2023-08-20T04:47:12;8.93;;;2.10;;
73776;SDS011;62088;50.240;2.696;2023-08-20T04:49:39;5.57;;;1.80;;
73776;SDS011;62088;50.240;2.696;2023-08-20T04:52:06;10.35;;;2.58;;
73776;SDS011;62088;50.240;2.696;2023-08-20T04:54:33;9.48;;;2.30;;
73776;SDS011;62088;50.240;2.696;2023-08-20T04:57:01;7.85;;;2.10;;
73776;SDS011;62088;50.240;2.696;2023-08-20T04:59:29;6.68;;;2.10;;
73776;SDS011;62088;50.240;2.696;2023-08-20T05:02:19;7.20;;;2.28;;
73776;SDS011;62088;50.240;2.696;2023-08-20T05:04:52;11.13;;;2.92;;
73776;SDS011;62088;50.240;2.696;2023-08-20T05:07:19;9.93;;;2.42;;
73776;SDS011;62088;50.240;2.696;2023-08-20T05:09:46;4.82;;;2.20;;
73776;SDS011;62088;50.240;2.696;2023-08-20T05:12:14;6.45;;;2.30;;
73776;SDS011;62088;50.240;2.696;2023-08-20T05:14:41;8.55;;;3.00;;
73776;SDS011;62088;50.240;2.696;2023-08-20T05:17:08;10.40;;;2.72;;
73776;SDS011;62088;50.240;2.696;2023-08-20T05:19:35;7.25;;;2.40;;
73776;SDS011;62088;50.240;2.696;2023-08-20T05:22:02;9.60;;;2.70;;
73776;SDS011;62088;50.240;2.696;2023-08-20T05:24:32;5.43;;;2.20;;
73776;SDS011;62088;50.240;2.696;2023-08-20T05:29:42;7.15;;;2.50;;
73776;SDS011;62088;50.240;2.696;2023-08-20T05:32:10;6.03;;;2.08;;
73776;SDS011;62088;50.240;2.696;2023-08-20T05:34:37;5.93;;;2.30;;
73776;SDS011;62088;50.240;2.696;2023-08-20T05:37:04;8.23;;;2.05;;
73776;SDS011;62088;50.240;2.696;2023-08-20T05:39:36;7.40;;;1.92;;
73776;SDS011;62088;50.240;2.696;2023-08-20T05:42:10;6.05;;;2.10;;
73776;SDS011;62088;50.240;2.696;2023-08-20T05:44:40;5.07;;;1.85;;
73776;SDS011;62088;50.240;2.696;2023-08-20T05:47:12;6.57;;;1.88;;
73776;SDS011;62088;50.240;2.696;2023-08-20T05:49:39;5.90;;;2.00;;
73776;SDS011;62088;50.240;2.696;2023-08-20T05:52:06;7.60;;;1.88;;
73776;SDS011;62088;50.240;2.696;2023-08-20T05:54:34;6.85;;;1.70;;
73776;SDS011;62088;50.240;2.696;2023-08-20T05:57:00;6.60;;;1.90;;
73776;SDS011;62088;50.240;2.696;2023-08-20T05:59:28;3.88;;;1.75;;
73776;SDS011;62088;50.240;2.696;2023-08-20T06:01:55;6.82;;;1.92;;
73776;SDS011;62088;50.240;2.696;2023-08-20T06:04:22;5.72;;;1.70;;
73776;SDS011;62088;50.240;2.696;2023-08-20T06:06:49;6.00;;;1.73;;
73776;SDS011;62088;50.240;2.696;2023-08-20T06:09:16;6.65;;;1.80;;
73776;SDS011;62088;50.240;2.696;2023-08-20T06:11:43;4.38;;;1.55;;
73776;SDS011;62088;50.240;2.696;2023-08-20T06:14:10;4.85;;;1.65;;
73776;SDS011;62088;50.240;2.696;2023-08-20T06:16:37;8.25;;;1.90;;
73776;SDS011;62088;50.240;2.696;2023-08-20T06:19:04;7.07;;;1.80;;
73776;SDS011;62088;50.240;2.696;2023-08-20T06:21:31;6.65;;;1.60;;
73776;SDS011;62088;50.240;2.696;2023-08-20T06:23:58;7.22;;;2.08;;
73776;SDS011;62088;50.240;2.696;2023-08-20T06:26:26;13.88;;;1.90;;
73776;SDS011;62088;50.240;2.696;2023-08-20T06:28:53;8.63;;;2.05;;
73776;SDS011;62088;50.240;2.696;2023-08-20T06:31:20;15.73;;;2.65;;
73776;SDS011;62088;50.240;2.696;2023-08-20T06:33:47;10.20;;;2.10;;
73776;SDS011;62088;50.240;2.696;2023-08-20T06:36:14;11.10;;;2.22;;
73776;SDS011;62088;50.240;2.696;2023-08-20T06:38:44;9.25;;;2.10;;
73776;SDS011;62088;50.240;2.696;2023-08-20T06:41:11;5.85;;;1.80;;
73776;SDS011;62088;50.240;2.696;2023-08-20T06:43:38;8.55;;;2.42;;
73776;SDS011;62088;50.240;2.696;2023-08-20T06:46:05;10.57;;;2.70;;
73776;SDS011;62088;50.240;2.696;2023-08-20T06:48:33;8.13;;;2.03;;
73776;SDS011;62088;50.240;2.696;2023-08-20T06:51:15;7.65;;;2.10;;
73776;SDS011;62088;50.240;2.696;2023-08-20T06:53:47;10.68;;;2.80;;
73776;SDS011;62088;50.240;2.696;2023-08-20T06:56:14;10.98;;;2.88;;
73776;SDS011;62088;50.240;2.696;2023-08-20T06:58:42;13.43;;;3.50;;
73776;SDS011;62088;50.240;2.696;2023-08-20T07:01:09;10.38;;;3.03;;
73776;SDS011;62088;50.240;2.696;2023-08-20T07:03:39;13.32;;;3.08;;
73776;SDS011;62088;50.240;2.696;2023-08-20T07:06:08;12.75;;;3.63;;
73776;SDS011;62088;50.240;2.696;2023-08-20T07:08:36;13.07;;;3.55;;
73776;SDS011;62088;50.240;2.696;2023-08-20T07:11:06;9.02;;;2.63;;
73776;SDS011;62088;50.240;2.696;2023-08-20T07:13:33;10.70;;;3.05;;
73776;SDS011;62088;50.240;2.696;2023-08-20T07:16:00;11.45;;;3.22;;
73776;SDS011;62088;50.240;2.696;2023-08-20T07:18:28;13.48;;;2.75;;
73776;SDS011;62088;50.240;2.696;2023-08-20T07:20:56;10.07;;;2.85;;
73776;SDS011;62088;50.240;2.696;2023-08-20T07:23:23;7.97;;;2.35;;
73776;SDS011;62088;50.240;2.696;2023-08-20T07:25:50;12.48;;;3.10;;
73776;SDS011;62088;50.240;2.696;2023-08-20T07:28:19;12.48;;;3.00;;
73776;SDS011;62088;50.240;2.696;2023-08-20T07:31:14;8.63;;;2.72;;
73776;SDS011;62088;50.240;2.696;2023-08-20T07:33:45;11.27;;;2.80;;
73776;SDS011;62088;50.240;2.696;2023-08-20T07:36:14;10.90;;;2.80;;
73776;SDS011;62088;50.240;2.696;2023-08-20T07:38:42;14.40;;;3.22;;
73776;SDS011;62088;50.240;2.696;2023-08-20T07:41:10;9.88;;;2.55;;
73776;SDS011;62088;50.240;2.696;2023-08-20T07:43:38;6.63;;;1.75;;
73776;SDS011;62088;50.240;2.696;2023-08-20T07:46:06;8.52;;;2.15;;
73776;SDS011;62088;50.240;2.696;2023-08-20T07:48:34;9.02;;;2.40;;
73776;SDS011;62088;50.240;2.696;2023-08-20T07:51:02;10.63;;;2.10;;
73776;SDS011;62088;50.240;2.696;2023-08-20T07:53:30;8.32;;;2.30;;
73776;SDS011;62088;50.240;2.696;2023-08-20T07:55:58;7.05;;;2.25;;
73776;SDS011;62088;50.240;2.696;2023-08-20T07:58:26;8.35;;;2.10;;
73776;SDS011;62088;50.240;2.696;2023-08-20T08:00:56;9.35;;;2.67;;
73776;SDS011;62088;50.240;2.696;2023-08-20T08:03:25;9.30;;;2.65;;
73776;SDS011;62088;50.240;2.696;2023-08-20T08:05:53;9.75;;;2.08;;
73776;SDS011;62088;50.240;2.696;2023-08-20T08:08:21;10.32;;;2.63;;
73776;SDS011;62088;50.240;2.696;2023-08-20T08:10:49;9.40;;;2.03;;
73776;SDS011;62088;50.240;2.696;2023-08-20T08:13:19;8.68;;;2.22;;
73776;SDS011;62088;50.240;2.696;2023-08-20T08:15:47;7.55;;;2.00;;
73776;SDS011;62088;50.240;2.696;2023-08-20T08:18:15;10.23;;;2.08;;
73776;SDS011;62088;50.240;2.696;2023-08-20T08:20:42;7.63;;;2.00;;
73776;SDS011;62088;50.240;2.696;2023-08-20T08:23:10;9.00;;;1.90;;
73776;SDS011;62088;50.240;2.696;2023-08-20T08:25:37;7.72;;;1.73;;
73776;SDS011;62088;50.240;2.696;2023-08-20T08:28:04;7.32;;;1.92;;
73776;SDS011;62088;50.240;2.696;2023-08-20T08:30:32;6.97;;;1.70;;
73776;SDS011;62088;50.240;2.696;2023-08-20T08:32:59;7.40;;;1.60;;
73776;SDS011;62088;50.240;2.696;2023-08-20T08:35:26;7.88;;;1.65;;
73776;SDS011;62088;50.240;2.696;2023-08-20T08:37:53;4.95;;;1.38;;
73776;SDS011;62088;50.240;2.696;2023-08-20T08:40:20;6.63;;;1.73;;
73776;SDS011;62088;50.240;2.696;2023-08-20T08:42:48;7.13;;;1.80;;
73776;SDS011;62088;50.240;2.696;2023-08-20T08:45:18;7.40;;;1.90;;
73776;SDS011;62088;50.240;2.696;2023-08-20T08:47:47;5.60;;;1.10;;
73776;SDS011;62088;50.240;2.696;2023-08-20T08:50:14;5.95;;;1.38;;
73776;SDS011;62088;50.240;2.696;2023-08-20T08:52:42;6.85;;;1.60;;
73776;SDS011;62088;50.240;2.696;2023-08-20T08:55:11;4.25;;;1.02;;
73776;SDS011;62088;50.240;2.696;2023-08-20T08:57:38;7.25;;;1.40;;
73776;SDS011;62088;50.240;2.696;2023-08-20T09:00:06;6.43;;;1.38;;
73776;SDS011;62088;50.240;2.696;2023-08-20T09:02:33;6.47;;;1.60;;
73776;SDS011;62088;50.240;2.696;2023-08-20T09:05:01;5.07;;;1.27;;
73776;SDS011;62088;50.240;2.696;2023-08-20T09:07:28;7.93;;;1.90;;
73776;SDS011;62088;50.240;2.696;2023-08-20T09:09:58;4.95;;;1.30;;
73776;SDS011;62088;50.240;2.696;2023-08-20T09:12:27;10.23;;;1.90;;
73776;SDS011;62088;50.240;2.696;2023-08-20T09:14:54;4.90;;;1.30;;
73776;SDS011;62088;50.240;2.696;2023-08-20T09:17:27;6.32;;;1.42;;
73776;SDS011;62088;50.240;2.696;2023-08-20T09:19:55;4.75;;;1.60;;
73776;SDS011;62088;50.240;2.696;2023-08-20T09:22:23;5.40;;;1.20;;
73776;SDS011;62088;50.240;2.696;2023-08-20T09:24:54;4.63;;;1.20;;
73776;SDS011;62088;50.240;2.696;2023-08-20T09:27:23;7.70;;;1.40;;
73776;SDS011;62088;50.240;2.696;2023-08-20T09:29:51;8.73;;;1.88;;
73776;SDS011;62088;50.240;2.696;2023-08-20T09:32:22;6.95;;;1.17;;
73776;SDS011;62088;50.240;2.696;2023-08-20T09:34:51;6.88;;;1.50;;
73776;SDS011;62088;50.240;2.696;2023-08-20T09:37:20;6.85;;;1.67;;
73776;SDS011;62088;50.240;2.696;2023-08-20T09:39:48;6.65;;;1.30;;
73776;SDS011;62088;50.240;2.696;2023-08-20T09:42:16;6.43;;;1.50;;
73776;SDS011;62088;50.240;2.696;2023-08-20T09:44:44;4.75;;;1.48;;
73776;SDS011;62088;50.240;2.696;2023-08-20T09:47:16;7.10;;;1.63;;
73776;SDS011;62088;50.240;2.696;2023-08-20T09:49:45;3.05;;;0.98;;
73776;SDS011;62088;50.240;2.696;2023-08-20T09:52:18;5.25;;;1.17;;
73776;SDS011;62088;50.240;2.696;2023-08-20T09:55:16;6.38;;;1.45;;
73776;SDS011;62088;50.240;2.696;2023-08-20T09:57:47;5.68;;;1.83;;
73776;SDS011;62088;50.240;2.696;2023-08-20T10:00:14;5.20;;;1.40;;
73776;SDS011;62088;50.240;2.696;2023-08-20T10:02:42;6.30;;;1.45;;
73776;SDS011;62088;50.240;2.696;2023-08-20T10:05:10;4.43;;;1.20;;
73776;SDS011;62088;50.240;2.696;2023-08-20T10:07:39;5.32;;;1.50;;
73776;SDS011;62088;50.240;2.696;2023-08-20T10:10:07;4.22;;;1.10;;
73776;SDS011;62088;50.240;2.696;2023-08-20T10:12:38;6.75;;;1.20;;
73776;SDS011;62088;50.240;2.696;2023-08-20T10:15:07;3.17;;;1.05;;
73776;SDS011;62088;50.240;2.696;2023-08-20T10:17:37;7.38;;;1.27;;
73776;SDS011;62088;50.240;2.696;2023-08-20T10:20:06;3.78;;;1.17;;
73776;SDS011;62088;50.240;2.696;2023-08-20T10:22:53;3.85;;;1.13;;
73776;SDS011;62088;50.240;2.696;2023-08-20T10:25:23;2.53;;;0.90;;
73776;SDS011;62088;50.240;2.696;2023-08-20T10:27:51;4.97;;;1.08;;
73776;SDS011;62088;50.240;2.696;2023-08-20T10:30:23;5.38;;;1.50;;
73776;SDS011;62088;50.240;2.696;2023-08-20T10:32:52;3.15;;;0.95;;
73776;SDS011;62088;50.240;2.696;2023-08-20T10:35:27;4.30;;;1.10;;
73776;SDS011;62088;50.240;2.696;2023-08-20T10:38:16;5.22;;;1.27;;
73776;SDS011;62088;50.240;2.696;2023-08-20T10:40:52;4.90;;;1.25;;
73776;SDS011;62088;50.240;2.696;2023-08-20T10:43:26;5.93;;;1.20;;
73776;SDS011;62088;50.240;2.696;2023-08-20T10:46:13;4.50;;;1.25;;
73776;SDS011;62088;50.240;2.696;2023-08-20T10:48:52;5.07;;;1.33;;
73776;SDS011;62088;50.240;2.696;2023-08-20T10:51:54;4.65;;;1.38;;
73776;SDS011;62088;50.240;2.696;2023-08-20T10:54:14;6.25;;;1.25;;
73776;SDS011;62088;50.240;2.696;2023-08-20T10:56:43;4.07;;;1.05;;
73776;SDS011;62088;50.240;2.696;2023-08-20T10:59:28;5.22;;;1.30;;
73776;SDS011;62088;50.240;2.696;2023-08-20T11:01:57;4.88;;;1.20;;
73776;SDS011;62088;50.240;2.696;2023-08-20T11:04:27;5.80;;;0.95;;
73776;SDS011;62088;50.240;2.696;2023-08-20T11:06:59;4.50;;;1.40;;
73776;SDS011;62088;50.240;2.696;2023-08-20T11:09:27;4.32;;;1.38;;
73776;SDS011;62088;50.240;2.696;2023-08-20T11:11:55;4.22;;;1.23;;
73776;SDS011;62088;50.240;2.696;2023-08-20T11:14:23;5.68;;;1.25;;
73776;SDS011;62088;50.240;2.696;2023-08-20T11:16:50;4.20;;;1.08;;
73776;SDS011;62088;50.240;2.696;2023-08-20T11:19:21;3.75;;;1.00;;
73776;SDS011;62088;50.240;2.696;2023-08-20T11:21:49;6.22;;;1.60;;
73776;SDS011;62088;50.240;2.696;2023-08-20T11:24:17;5.28;;;1.30;;
73776;SDS011;62088;50.240;2.696;2023-08-20T11:26:46;6.18;;;1.42;;
73776;SDS011;62088;50.240;2.696;2023-08-20T11:29:14;4.57;;;1.13;;
73776;SDS011;62088;50.240;2.696;2023-08-20T11:31:49;6.47;;;1.40;;
73776;SDS011;62088;50.240;2.696;2023-08-20T11:34:20;3.80;;;1.00;;
73776;SDS011;62088;50.240;2.696;2023-08-20T11:36:47;4.35;;;1.30;;
73776;SDS011;62088;50.240;2.696;2023-08-20T11:39:16;6.93;;;1.60;;
73776;SDS011;62088;50.240;2.696;2023-08-20T11:41:43;6.07;;;1.48;;
73776;SDS011;62088;50.240;2.696;2023-08-20T11:44:10;5.18;;;1.58;;
73776;SDS011;62088;50.240;2.696;2023-08-20T11:46:45;3.50;;;1.10;;
73776;SDS011;62088;50.240;2.696;2023-08-20T11:49:12;4.75;;;1.30;;
73776;SDS011;62088;50.240;2.696;2023-08-20T11:51:41;5.05;;;1.20;;
73776;SDS011;62088;50.240;2.696;2023-08-20T11:54:13;7.60;;;1.23;;
73776;SDS011;62088;50.240;2.696;2023-08-20T11:56:44;4.22;;;1.25;;
73776;SDS011;62088;50.240;2.696;2023-08-20T11:59:13;5.25;;;1.50;;
73776;SDS011;62088;50.240;2.696;2023-08-20T12:01:41;5.20;;;1.42;;
73776;SDS011;62088;50.240;2.696;2023-08-20T12:04:09;5.00;;;1.20;;
73776;SDS011;62088;50.240;2.696;2023-08-20T12:06:37;5.63;;;1.35;;
73776;SDS011;62088;50.240;2.696;2023-08-20T12:09:22;5.30;;;1.10;;
73776;SDS011;62088;50.240;2.696;2023-08-20T12:12:09;4.28;;;1.20;;
73776;SDS011;62088;50.240;2.696;2023-08-20T12:14:36;3.92;;;1.00;;
73776;SDS011;62088;50.240;2.696;2023-08-20T12:17:03;7.03;;;1.58;;
73776;SDS011;62088;50.240;2.696;2023-08-20T12:19:30;4.18;;;1.05;;
73776;SDS011;62088;50.240;2.696;2023-08-20T12:21:57;4.13;;;1.25;;
73776;SDS011;62088;50.240;2.696;2023-08-20T12:24:25;4.75;;;1.50;;
73776;SDS011;62088;50.240;2.696;2023-08-20T12:26:52;3.60;;;1.50;;
73776;SDS011;62088;50.240;2.696;2023-08-20T12:29:20;4.38;;;1.10;;
73776;SDS011;62088;50.240;2.696;2023-08-20T12:31:47;3.55;;;1.00;;
73776;SDS011;62088;50.240;2.696;2023-08-20T12:34:14;3.72;;;1.10;;
73776;SDS011;62088;50.240;2.696;2023-08-20T12:36:41;4.57;;;1.27;;
73776;SDS011;62088;50.240;2.696;2023-08-20T12:39:08;13.27;;;1.50;;
73776;SDS011;62088;50.240;2.696;2023-08-20T12:41:35;4.78;;;1.20;;
73776;SDS011;62088;50.240;2.696;2023-08-20T12:44:03;5.25;;;1.58;;
73776;SDS011;62088;50.240;2.696;2023-08-20T12:46:30;4.70;;;1.23;;
73776;SDS011;62088;50.240;2.696;2023-08-20T12:48:57;4.68;;;1.15;;
73776;SDS011;62088;50.240;2.696;2023-08-20T12:51:24;3.05;;;1.10;;
73776;SDS011;62088;50.240;2.696;2023-08-20T12:53:52;5.25;;;1.35;;
73776;SDS011;62088;50.240;2.696;2023-08-20T12:56:19;4.80;;;1.17;;
73776;SDS011;62088;50.240;2.696;2023-08-20T12:58:46;3.30;;;1.05;;
73776;SDS011;62088;50.240;2.696;2023-08-20T13:01:13;6.05;;;1.42;;
73776;SDS011;62088;50.240;2.696;2023-08-20T13:03:40;5.28;;;1.35;;
73776;SDS011;62088;50.240;2.696;2023-08-20T13:06:08;4.38;;;1.33;;
73776;SDS011;62088;50.240;2.696;2023-08-20T13:08:36;3.67;;;1.30;;
73776;SDS011;62088;50.240;2.696;2023-08-20T13:11:03;6.03;;;1.20;;
73776;SDS011;62088;50.240;2.696;2023-08-20T13:13:32;3.33;;;1.00;;
73776;SDS011;62088;50.240;2.696;2023-08-20T13:16:00;4.50;;;1.10;;
73776;SDS011;62088;50.240;2.696;2023-08-20T13:18:29;4.38;;;1.08;;
73776;SDS011;62088;50.240;2.696;2023-08-20T13:20:56;8.77;;;1.20;;
73776;SDS011;62088;50.240;2.696;2023-08-20T13:23:23;4.70;;;1.40;;
73776;SDS011;62088;50.240;2.696;2023-08-20T13:25:51;3.25;;;0.88;;
73776;SDS011;62088;50.240;2.696;2023-08-20T13:28:18;4.47;;;0.95;;
73776;SDS011;62088;50.240;2.696;2023-08-20T13:30:45;9.75;;;1.40;;
73776;SDS011;62088;50.240;2.696;2023-08-20T13:33:13;5.15;;;1.13;;
73776;SDS011;62088;50.240;2.696;2023-08-20T13:35:41;6.75;;;1.25;;
73776;SDS011;62088;50.240;2.696;2023-08-20T13:38:08;3.65;;;1.23;;
73776;SDS011;62088;50.240;2.696;2023-08-20T13:40:36;5.93;;;1.20;;
73776;SDS011;62088;50.240;2.696;2023-08-20T13:43:03;6.32;;;1.10;;
73776;SDS011;62088;50.240;2.696;2023-08-20T13:45:31;4.65;;;1.10;;
73776;SDS011;62088;50.240;2.696;2023-08-20T13:47:58;5.05;;;1.10;;
73776;SDS011;62088;50.240;2.696;2023-08-20T13:50:25;8.30;;;1.63;;
73776;SDS011;62088;50.240;2.696;2023-08-20T13:52:52;3.45;;;1.08;;
73776;SDS011;62088;50.240;2.696;2023-08-20T13:55:20;4.60;;;1.05;;
73776;SDS011;62088;50.240;2.696;2023-08-20T13:57:48;3.45;;;1.08;;
73776;SDS011;62088;50.240;2.696;2023-08-20T14:00:15;5.47;;;1.13;;
73776;SDS011;62088;50.240;2.696;2023-08-20T14:02:42;3.55;;;1.40;;
73776;SDS011;62088;50.240;2.696;2023-08-20T14:05:09;3.78;;;1.05;;
73776;SDS011;62088;50.240;2.696;2023-08-20T14:07:36;2.20;;;0.80;;
73776;SDS011;62088;50.240;2.696;2023-08-20T14:10:05;4.53;;;1.10;;
73776;SDS011;62088;50.240;2.696;2023-08-20T14:12:33;4.55;;;1.00;;
73776;SDS011;62088;50.240;2.696;2023-08-20T14:15:04;5.10;;;1.20;;
73776;SDS011;62088;50.240;2.696;2023-08-20T14:17:32;4.35;;;1.20;;
73776;SDS011;62088;50.240;2.696;2023-08-20T14:19:59;5.50;;;1.20;;
73776;SDS011;62088;50.240;2.696;2023-08-20T14:22:26;3.50;;;0.90;;
73776;SDS011;62088;50.240;2.696;2023-08-20T14:24:53;4.68;;;1.30;;
73776;SDS011;62088;50.240;2.696;2023-08-20T14:27:20;4.10;;;1.20;;
73776;SDS011;62088;50.240;2.696;2023-08-20T14:29:49;2.55;;;0.98;;
73776;SDS011;62088;50.240;2.696;2023-08-20T14:32:16;3.70;;;1.00;;
73776;SDS011;62088;50.240;2.696;2023-08-20T14:34:43;4.00;;;1.10;;
73776;SDS011;62088;50.240;2.696;2023-08-20T14:37:10;7.78;;;0.90;;
73776;SDS011;62088;50.240;2.696;2023-08-20T14:39:39;4.35;;;1.25;;
73776;SDS011;62088;50.240;2.696;2023-08-20T14:42:07;4.53;;;1.27;;
73776;SDS011;62088;50.240;2.696;2023-08-20T14:44:34;5.30;;;1.30;;
73776;SDS011;62088;50.240;2.696;2023-08-20T14:47:01;4.28;;;1.00;;
73776;SDS011;62088;50.240;2.696;2023-08-20T14:49:31;3.78;;;1.20;;
73776;SDS011;62088;50.240;2.696;2023-08-20T14:51:58;4.93;;;1.23;;
73776;SDS011;62088;50.240;2.696;2023-08-20T14:54:44;3.28;;;1.00;;
73776;SDS011;62088;50.240;2.696;2023-08-20T14:57:11;5.35;;;1.25;;
73776;SDS011;62088;50.240;2.696;2023-08-20T14:59:38;4.28;;;1.33;;
73776;SDS011;62088;50.240;2.696;2023-08-20T15:02:05;7.47;;;1.58;;
73776;SDS011;62088;50.240;2.696;2023-08-20T15:04:32;3.08;;;1.15;;